Time;durP1;ratioP1;P1;durP2;ratioP2;P2;SDS_P1;SDS_P2;PMS_P1;PMS_P2;Temp;Humidity;BMP_temperature;BMP_pressure;BME280_temperature;BME280_humidity;BME280_pressure;Samples;Min_cycle;Max_cycle;Signal;HPM_P1;HPM_P2
2021/08/09 00:00:38;;;;;;;4.38;2.85;;;18.20;74.80;;;;;;5014776;28;20256;-90
2021/08/09 00:03:04;;;;;;;4.13;2.55;;;18.20;74.40;;;;;;5032386;28;20200;-89
2021/08/09 00:05:30;;;;;;;2.83;2.60;;;18.30;74.30;;;;;;5014917;28;20193;-90
2021/08/09 00:07:56;;;;;;;3.10;2.72;;;18.30;74.10;;;;;;5034643;28;20203;-90
2021/08/09 00:10:22;;;;;;;4.25;2.90;;;18.30;73.80;;;;;;5017878;28;20221;-89
2021/08/09 00:12:47;;;;;;;4.40;3.05;;;18.40;73.70;;;;;;5014157;28;20201;-90
2021/08/09 00:15:13;;;;;;;3.15;2.72;;;18.30;73.90;;;;;;5015619;28;20203;-90
2021/08/09 00:17:39;;;;;;;2.60;2.40;;;18.30;74.40;;;;;;5018303;28;20193;-91
2021/08/09 00:20:06;;;;;;;2.95;2.65;;;18.30;73.90;;;;;;5032274;28;20240;-90
2021/08/09 00:22:32;;;;;;;4.20;2.72;;;18.30;73.70;;;;;;5017718;28;20186;-91
2021/08/09 00:24:58;;;;;;;4.18;2.70;;;18.30;74.00;;;;;;5027979;28;20184;-90
2021/08/09 00:27:23;;;;;;;6.00;2.92;;;18.20;73.90;;;;;;5018647;28;20217;-90
2021/08/09 00:29:49;;;;;;;5.55;2.80;;;18.00;74.80;;;;;;5014896;28;20204;-88
2021/08/09 00:32:15;;;;;;;2.90;2.60;;;18.00;75.10;;;;;;5016493;28;20195;-87
2021/08/09 00:34:41;;;;;;;2.90;2.70;;;17.90;75.10;;;;;;5016988;28;20207;-88
2021/08/09 00:37:06;;;;;;;3.22;2.92;;;17.90;75.30;;;;;;5032644;28;20197;-88
2021/08/09 00:39:32;;;;;;;2.90;2.70;;;17.90;75.30;;;;;;5029484;28;20230;-88
2021/08/09 00:41:59;;;;;;;4.05;2.97;;;17.90;75.10;;;;;;5017721;28;20677;-88
2021/08/09 00:44:25;;;;;;;4.70;2.95;;;17.90;74.80;;;;;;5015825;28;20780;-88
2021/08/09 00:46:51;;;;;;;3.20;2.90;;;17.90;74.90;;;;;;5013034;28;20229;-88
2021/08/09 00:49:16;;;;;;;2.90;2.70;;;17.70;75.50;;;;;;5016116;28;20714;-88
2021/08/09 00:51:42;;;;;;;3.65;3.00;;;17.60;75.90;;;;;;5015375;28;20206;-90
2021/08/09 00:54:10;;;;;;;4.07;2.65;;;17.60;76.50;;;;;;5016281;28;20201;-90
2021/08/09 00:56:35;;;;;;;3.08;2.80;;;17.60;76.30;;;;;;5016852;28;20192;-91
2021/08/09 00:59:02;;;;;;;5.22;2.80;;;17.60;76.30;;;;;;5018082;28;20267;-90
2021/08/09 01:01:27;;;;;;;3.97;2.65;;;17.50;75.50;;;;;;5017433;28;20225;-91
2021/08/09 01:03:53;;;;;;;2.90;2.70;;;17.50;76.10;;;;;;5016828;28;20211;-91
2021/08/09 01:06:19;;;;;;;4.93;2.90;;;17.40;76.60;;;;;;5021574;28;20192;-90
2021/08/09 01:09:06;;;;;;;4.63;2.92;;;17.40;76.40;;;;;;5021456;28;20203;-90
2021/08/09 01:11:44;;;;;;;3.45;3.17;;;17.30;76.60;;;;;;5019480;28;20290;-87
2021/08/09 01:14:13;;;;;;;4.35;3.00;;;17.30;76.30;;;;;;5017555;28;20199;-88
2021/08/09 01:16:40;;;;;;;4.88;2.65;;;17.40;76.70;;;;;;5018954;28;20234;-91
2021/08/09 01:19:33;;;;;;;3.53;2.80;;;17.40;76.50;;;;;;5015509;28;20219;-91
2021/08/09 01:22:09;;;;;;;3.78;2.75;;;17.40;76.40;;;;;;5015387;28;20204;-90
2021/08/09 01:24:51;;;;;;;3.40;2.80;;;17.30;75.00;;;;;;5017989;28;20196;-90
2021/08/09 01:27:32;;;;;;;5.22;2.85;;;17.20;77.00;;;;;;5019019;28;20170;-90
2021/08/09 01:30:03;;;;;;;3.38;2.63;;;17.20;77.40;;;;;;5018701;28;20222;-91
2021/08/09 01:32:30;;;;;;;2.88;2.65;;;17.10;77.50;;;;;;5016425;28;20218;-91
2021/08/09 01:34:58;;;;;;;2.92;2.72;;;17.20;77.00;;;;;;5019601;28;20208;-90
2021/08/09 01:37:25;;;;;;;5.30;3.10;;;17.30;76.70;;;;;;5017479;28;20180;-91
2021/08/09 01:39:51;;;;;;;3.20;2.90;;;17.20;76.00;;;;;;5017064;28;20302;-91
2021/08/09 01:42:18;;;;;;;4.63;2.90;;;17.10;77.20;;;;;;5017812;28;20687;-91
2021/08/09 01:44:44;;;;;;;3.97;2.97;;;17.00;76.90;;;;;;5034929;28;20194;-90
2021/08/09 01:47:11;;;;;;;2.90;2.50;;;17.00;76.90;;;;;;5017803;28;20203;-90
2021/08/09 01:49:37;;;;;;;4.00;2.53;;;16.90;77.60;;;;;;5018846;28;20251;-91
2021/08/09 01:52:03;;;;;;;3.00;2.63;;;16.90;78.50;;;;;;5018489;28;20188;-91
2021/08/09 01:54:30;;;;;;;3.10;2.80;;;16.90;77.20;;;;;;5020257;28;20249;-88
2021/08/09 01:56:56;;;;;;;3.88;2.38;;;16.90;77.30;;;;;;5019133;28;20538;-89
2021/08/09 01:59:23;;;;;;;3.77;2.50;;;16.90;77.60;;;;;;5033971;28;20354;-88
2021/08/09 02:01:51;;;;;;;2.85;2.30;;;16.90;77.30;;;;;;5018114;28;20217;-88
2021/08/09 02:04:16;;;;;;;2.95;2.47;;;16.90;76.90;;;;;;5024758;28;20199;-89
2021/08/09 02:06:43;;;;;;;3.15;2.50;;;16.90;77.30;;;;;;5027620;28;20183;-86
2021/08/09 02:09:09;;;;;;;2.90;2.60;;;17.00;77.00;;;;;;5026425;28;20192;-89
2021/08/09 02:11:57;;;;;;;3.65;2.42;;;17.10;77.00;;;;;;5034340;28;20276;-88
2021/08/09 02:14:26;;;;;;;7.97;2.87;;;17.10;75.90;;;;;;5016662;28;20192;-90
2021/08/09 02:17:07;;;;;;;2.92;2.67;;;16.90;77.10;;;;;;5016795;28;20204;-89
2021/08/09 02:19:38;;;;;;;2.85;2.65;;;16.90;76.20;;;;;;5019302;28;20206;-88
2021/08/09 02:22:09;;;;;;;2.55;2.35;;;16.90;77.30;;;;;;5029248;28;20256;-90
2021/08/09 02:25:11;;;;;;;2.80;2.60;;;16.80;76.60;;;;;;5018326;28;20183;-90
2021/08/09 02:27:48;;;;;;;3.88;2.60;;;16.90;77.40;;;;;;5016836;28;20199;-90
2021/08/09 02:30:16;;;;;;;3.58;2.50;;;16.90;76.90;;;;;;5018989;28;20226;-89
2021/08/09 02:32:43;;;;;;;5.20;2.67;;;16.80;77.70;;;;;;5017914;28;20197;-90
2021/08/09 02:35:15;;;;;;;2.25;2.13;;;16.70;76.00;;;;;;5016775;28;20251;-88
2021/08/09 02:37:41;;;;;;;5.00;2.50;;;16.70;77.00;;;;;;5019652;28;20199;-90
2021/08/09 02:40:08;;;;;;;4.17;2.30;;;16.70;77.00;;;;;;5015669;28;20298;-89
2021/08/09 02:42:34;;;;;;;4.90;2.40;;;16.70;77.00;;;;;;5016373;28;20245;-89
2021/08/09 02:45:00;;;;;;;2.33;2.13;;;16.60;76.20;;;;;;5016881;28;20503;-90
2021/08/09 02:47:27;;;;;;;3.73;2.63;;;16.50;77.50;;;;;;5035184;28;20187;-90
2021/08/09 02:49:54;;;;;;;4.97;2.72;;;16.50;77.90;;;;;;5033917;28;20319;-88
2021/08/09 02:52:21;;;;;;;2.70;2.50;;;16.40;78.40;;;;;;5032842;28;20657;-90
2021/08/09 02:54:48;;;;;;;4.10;2.70;;;16.50;78.10;;;;;;5017402;28;20223;-89
2021/08/09 02:57:16;;;;;;;3.60;2.50;;;16.50;78.10;;;;;;5017715;28;20211;-90
2021/08/09 02:59:41;;;;;;;3.63;2.50;;;16.60;78.50;;;;;;5018945;28;20210;-88
2021/08/09 03:02:09;;;;;;;2.57;2.37;;;16.60;78.10;;;;;;5015794;28;20257;-90
2021/08/09 03:04:36;;;;;;;3.23;2.40;;;16.60;77.30;;;;;;5019507;28;20194;-90
2021/08/09 03:07:06;;;;;;;4.53;2.33;;;16.50;77.90;;;;;;5033979;28;20187;-91
2021/08/09 03:09:35;;;;;;;10.23;2.67;;;16.40;78.10;;;;;;5016389;28;20262;-90
2021/08/09 03:12:02;;;;;;;4.07;2.50;;;16.40;77.80;;;;;;5016336;28;20714;-89
2021/08/09 03:14:31;;;;;;;3.47;2.20;;;16.40;78.60;;;;;;5017508;28;20181;-90
2021/08/09 03:17:00;;;;;;;5.63;2.50;;;16.40;78.00;;;;;;5018914;28;20672;-90
2021/08/09 03:19:26;;;;;;;2.60;2.40;;;16.40;77.50;;;;;;5022215;28;20210;-86
2021/08/09 03:21:57;;;;;;;3.70;2.60;;;16.50;77.40;;;;;;5036396;28;20202;-85
2021/08/09 03:24:24;;;;;;;2.83;2.47;;;16.40;78.20;;;;;;5035236;28;20249;-88
2021/08/09 03:26:50;;;;;;;3.80;2.27;;;16.30;79.00;;;;;;5019176;28;20286;-90
2021/08/09 03:29:16;;;;;;;3.07;2.53;;;16.40;78.90;;;;;;5032494;28;20184;-87
2021/08/09 03:31:43;;;;;;;5.77;2.60;;;16.40;78.70;;;;;;5017176;28;20217;-88
2021/08/09 03:34:09;;;;;;;4.03;2.50;;;16.40;78.00;;;;;;5031491;28;20207;-90
2021/08/09 03:36:35;;;;;;;2.70;2.50;;;16.40;78.50;;;;;;5018556;28;20242;-89
2021/08/09 03:39:00;;;;;;;4.03;2.57;;;16.40;77.70;;;;;;5017759;28;20284;-89
2021/08/09 03:41:26;;;;;;;2.73;2.50;;;16.40;78.20;;;;;;5015742;28;20746;-90
2021/08/09 03:43:52;;;;;;;3.40;2.53;;;16.40;78.30;;;;;;5016652;28;20821;-89
2021/08/09 03:46:18;;;;;;;2.43;2.23;;;16.40;78.10;;;;;;5026290;28;20223;-90
2021/08/09 03:48:44;;;;;;;2.30;2.10;;;16.40;78.10;;;;;;5016962;28;20317;-90
2021/08/09 03:51:09;;;;;;;2.87;2.40;;;16.50;78.60;;;;;;5025297;28;20244;-90
2021/08/09 03:53:35;;;;;;;2.83;2.10;;;16.50;78.30;;;;;;5016884;28;20226;-88
2021/08/09 03:56:00;;;;;;;3.13;2.70;;;16.50;78.20;;;;;;5013135;28;20233;-90
2021/08/09 03:58:26;;;;;;;3.37;2.70;;;16.50;78.20;;;;;;5019971;28;20241;-89
2021/08/09 04:00:52;;;;;;;2.40;2.20;;;16.50;78.30;;;;;;5019132;28;20326;-90
2021/08/09 04:03:18;;;;;;;2.97;2.30;;;16.60;78.20;;;;;;5034066;28;20190;-90
2021/08/09 04:05:43;;;;;;;4.00;2.67;;;16.60;78.10;;;;;;5018746;28;20567;-90
2021/08/09 04:08:09;;;;;;;4.40;2.57;;;16.60;78.10;;;;;;5017762;28;20202;-89
2021/08/09 04:10:34;;;;;;;4.10;2.60;;;16.70;77.90;;;;;;5018795;28;20737;-90
2021/08/09 04:13:01;;;;;;;5.43;2.57;;;16.60;78.10;;;;;;5015483;28;20576;-90
2021/08/09 04:15:26;;;;;;;3.87;2.33;;;16.50;77.90;;;;;;5012737;28;20204;-90
2021/08/09 04:17:52;;;;;;;4.23;2.70;;;16.30;78.90;;;;;;5018222;28;20217;-89
2021/08/09 04:20:18;;;;;;;3.07;2.77;;;16.20;79.60;;;;;;5013376;28;20297;-90
2021/08/09 04:22:43;;;;;;;3.50;2.40;;;16.20;79.70;;;;;;5013328;28;20557;-88
2021/08/09 04:25:09;;;;;;;4.23;2.63;;;16.20;79.60;;;;;;5018772;28;20193;-89
2021/08/09 04:27:35;;;;;;;4.03;2.90;;;16.20;80.00;;;;;;5006496;28;20263;-89
2021/08/09 04:30:01;;;;;;;3.43;2.77;;;16.00;80.70;;;;;;5021478;28;20278;-89
2021/08/09 04:32:37;;;;;;;2.60;2.37;;;15.80;81.40;;;;;;5023109;28;20202;-90
2021/08/09 04:35:04;;;;;;;2.80;2.50;;;15.80;82.00;;;;;;5033294;28;20197;-88
2021/08/09 04:37:29;;;;;;;3.87;2.77;;;15.70;82.60;;;;;;5016541;28;20189;-90
2021/08/09 04:39:55;;;;;;;5.30;2.70;;;15.80;82.50;;;;;;5021445;28;20227;-90
2021/08/09 04:42:21;;;;;;;3.53;2.30;;;15.80;82.40;;;;;;5021753;28;20233;-89
2021/08/09 04:44:46;;;;;;;3.03;2.60;;;15.90;81.90;;;;;;5015422;28;20197;-91
2021/08/09 04:47:12;;;;;;;4.13;2.60;;;16.00;81.40;;;;;;5018179;28;20258;-89
2021/08/09 04:49:38;;;;;;;2.77;2.57;;;16.10;81.10;;;;;;5036014;28;20198;-90
2021/08/09 04:52:03;;;;;;;3.43;2.40;;;16.20;80.90;;;;;;5030505;28;20200;-90
2021/08/09 04:54:29;;;;;;;2.90;2.57;;;16.20;79.70;;;;;;5018848;28;20212;-89
2021/08/09 04:56:55;;;;;;;4.90;2.57;;;16.20;80.40;;;;;;5017952;28;20568;-90
2021/08/09 04:59:20;;;;;;;2.90;2.30;;;16.10;80.70;;;;;;5020850;28;21026;-88
2021/08/09 05:01:46;;;;;;;4.93;2.37;;;16.10;81.10;;;;;;5018913;28;20213;-91
2021/08/09 05:04:12;;;;;;;4.70;2.40;;;16.10;81.50;;;;;;5020114;28;20205;-91
2021/08/09 05:06:37;;;;;;;3.07;2.40;;;16.20;81.30;;;;;;5015655;28;20181;-88
2021/08/09 05:09:03;;;;;;;2.93;2.50;;;16.20;81.10;;;;;;5013934;28;20206;-87
2021/08/09 05:11:29;;;;;;;3.10;2.63;;;16.10;81.60;;;;;;5015424;28;20257;-86
2021/08/09 05:13:57;;;;;;;2.63;2.40;;;16.20;81.40;;;;;;5018468;28;20269;-88
2021/08/09 05:16:22;;;;;;;4.00;2.50;;;16.30;80.80;;;;;;5019770;28;20251;-89
2021/08/09 05:18:48;;;;;;;3.77;2.57;;;16.40;80.50;;;;;;5016976;28;20223;-89
2021/08/09 05:21:16;;;;;;;6.10;2.70;;;16.40;80.40;;;;;;5011850;28;20248;-89
2021/08/09 05:23:41;;;;;;;2.77;2.57;;;16.50;80.00;;;;;;5005424;28;20207;-87
2021/08/09 05:26:07;;;;;;;5.63;3.47;;;16.50;79.70;;;;;;5018087;28;20191;-87
2021/08/09 05:28:33;;;;;;;3.70;2.70;;;16.50;79.50;;;;;;5034760;28;20310;-89
2021/08/09 05:30:59;;;;;;;3.70;2.67;;;16.60;79.50;;;;;;5017427;28;20259;-89
2021/08/09 05:33:25;;;;;;;2.73;2.33;;;16.70;79.70;;;;;;5019577;28;20278;-89
2021/08/09 05:35:50;;;;;;;2.57;2.30;;;16.80;78.50;;;;;;5016428;28;20238;-88
2021/08/09 05:38:16;;;;;;;2.90;2.60;;;16.80;78.60;;;;;;5021577;28;20240;-88
2021/08/09 05:40:42;;;;;;;3.57;2.60;;;16.80;79.30;;;;;;5020112;28;20230;-88
2021/08/09 05:43:07;;;;;;;2.70;2.50;;;16.80;78.40;;;;;;5015828;28;20199;-89
2021/08/09 05:45:33;;;;;;;5.00;2.80;;;16.80;79.00;;;;;;5013292;28;20227;-88
2021/08/09 05:47:59;;;;;;;3.00;2.53;;;16.90;79.10;;;;;;5020311;28;20211;-88
2021/08/09 05:50:25;;;;;;;2.93;2.73;;;16.90;79.10;;;;;;5021946;28;20224;-88
2021/08/09 05:52:52;;;;;;;3.57;2.87;;;16.80;79.10;;;;;;5027400;28;20448;-88
2021/08/09 05:55:18;;;;;;;2.87;2.60;;;16.70;79.70;;;;;;5047604;28;20764;-89
2021/08/09 05:57:44;;;;;;;3.78;2.80;;;16.70;80.50;;;;;;5018414;28;20228;-88
2021/08/09 06:00:10;;;;;;;2.60;2.40;;;16.70;80.90;;;;;;5018026;28;20207;-88
2021/08/09 06:02:42;;;;;;;5.67;2.83;;;16.70;81.00;;;;;;5018935;28;20549;-88
2021/08/09 06:05:09;;;;;;;5.53;3.03;;;16.70;81.10;;;;;;5021495;28;20192;-88
2021/08/09 06:07:34;;;;;;;3.97;2.87;;;16.50;82.60;;;;;;5022099;28;20197;-88
2021/08/09 06:10:00;;;;;;;3.47;3.13;;;16.30;83.20;;;;;;5021353;28;20301;-88
2021/08/09 06:12:26;;;;;;;5.27;2.93;;;16.20;83.30;;;;;;5023829;28;20276;-89
2021/08/09 06:14:51;;;;;;;4.30;2.83;;;16.20;82.90;;;;;;5021897;28;20203;-88
2021/08/09 06:17:17;;;;;;;4.77;2.80;;;16.30;83.20;;;;;;5019210;28;20186;-89
2021/08/09 06:19:43;;;;;;;3.43;3.00;;;16.40;82.70;;;;;;5036246;28;20287;-89
2021/08/09 06:22:08;;;;;;;3.20;2.90;;;16.40;82.30;;;;;;5021404;28;20198;-88
2021/08/09 06:24:34;;;;;;;4.57;3.07;;;16.30;83.80;;;;;;5018909;28;20201;-89
2021/08/09 06:27:00;;;;;;;5.10;2.77;;;16.20;83.90;;;;;;5019657;28;20225;-89
2021/08/09 06:29:26;;;;;;;3.20;2.77;;;16.40;83.50;;;;;;5021031;28;20699;-89
2021/08/09 06:31:52;;;;;;;5.80;3.03;;;16.40;83.30;;;;;;5024008;28;20227;-88
2021/08/09 06:34:17;;;;;;;3.87;3.03;;;16.50;82.50;;;;;;5023681;28;20212;-88
2021/08/09 06:36:43;;;;;;;3.93;2.90;;;16.50;81.50;;;;;;5021299;28;20249;-88
2021/08/09 06:39:11;;;;;;;5.93;2.87;;;16.50;82.00;;;;;;5017130;28;20257;-88
2021/08/09 06:41:37;;;;;;;5.23;3.17;;;16.70;80.70;;;;;;5016520;28;20210;-88
2021/08/09 06:44:02;;;;;;;3.57;2.70;;;16.70;82.50;;;;;;5019703;28;20202;-89
2021/08/09 06:46:28;;;;;;;4.47;3.27;;;16.90;81.20;;;;;;5019568;28;20625;-88
2021/08/09 06:48:55;;;;;;;3.03;2.67;;;16.90;80.80;;;;;;5023321;28;20190;-88
2021/08/09 06:51:21;;;;;;;6.30;3.30;;;17.00;80.00;;;;;;5022117;28;20209;-88
2021/08/09 06:53:47;;;;;;;6.43;2.83;;;17.00;79.80;;;;;;5020313;28;20202;-88
2021/08/09 06:56:15;;;;;;;6.67;2.77;;;17.30;78.70;;;;;;5020818;28;20212;-89
2021/08/09 06:58:42;;;;;;;4.27;2.77;;;17.40;79.40;;;;;;5009209;28;20337;-89
2021/08/09 07:01:08;;;;;;;4.77;3.30;;;17.50;79.90;;;;;;5023407;28;20212;-88
2021/08/09 07:03:34;;;;;;;4.67;2.80;;;17.60;79.80;;;;;;5018956;28;20195;-88
2021/08/09 07:05:59;;;;;;;5.33;3.00;;;17.70;78.50;;;;;;5017553;28;20203;-88
2021/08/09 07:08:25;;;;;;;4.30;2.87;;;17.70;79.00;;;;;;5017725;28;20194;-88
2021/08/09 07:10:52;;;;;;;3.53;3.07;;;17.60;80.80;;;;;;5016790;28;20650;-89
2021/08/09 07:13:21;;;;;;;7.53;3.10;;;17.60;79.70;;;;;;5019040;28;20572;-88
2021/08/09 07:15:47;;;;;;;6.03;3.20;;;17.60;80.30;;;;;;5019758;28;20216;-88
2021/08/09 07:18:15;;;;;;;5.80;2.87;;;17.70;78.50;;;;;;5021534;28;20234;-88
2021/08/09 07:20:41;;;;;;;3.07;2.70;;;17.80;78.40;;;;;;5021320;28;20603;-88
2021/08/09 07:23:07;;;;;;;3.50;3.17;;;17.80;77.70;;;;;;5019636;28;20195;-89
2021/08/09 07:25:33;;;;;;;4.93;3.13;;;17.90;77.40;;;;;;5021625;28;20227;-88
2021/08/09 07:27:59;;;;;;;5.40;2.90;;;18.00;77.80;;;;;;5017846;28;20209;-88
2021/08/09 07:30:25;;;;;;;3.05;2.80;;;18.10;77.20;;;;;;5018014;28;20219;-89
2021/08/09 07:32:50;;;;;;;3.25;2.72;;;18.30;77.40;;;;;;5018923;28;20200;-89
2021/08/09 07:35:16;;;;;;;4.53;3.00;;;18.30;77.10;;;;;;5013284;28;20194;-88
2021/08/09 07:37:42;;;;;;;3.65;2.95;;;18.50;74.80;;;;;;5022026;28;20211;-89
2021/08/09 07:40:08;;;;;;;4.25;3.10;;;18.60;75.50;;;;;;5018812;28;20273;-88
2021/08/09 07:42:34;;;;;;;5.25;2.92;;;18.60;74.60;;;;;;5030547;28;20216;-88
2021/08/09 07:45:00;;;;;;;3.67;2.88;;;18.70;74.70;;;;;;5025134;28;20201;-89
2021/08/09 07:47:26;;;;;;;4.63;3.45;;;18.80;74.60;;;;;;5014502;28;20196;-88
2021/08/09 07:49:52;;;;;;;5.03;3.30;;;18.90;74.60;;;;;;5020357;28;20221;-89
2021/08/09 07:52:18;;;;;;;3.30;3.00;;;18.90;73.90;;;;;;5018322;28;20263;-88
2021/08/09 07:54:43;;;;;;;3.78;3.08;;;19.00;74.20;;;;;;5014192;28;20212;-87
2021/08/09 07:57:09;;;;;;;3.13;2.90;;;19.00;74.50;;;;;;5016515;28;20216;-89
2021/08/09 07:59:35;;;;;;;4.40;2.75;;;19.00;74.60;;;;;;5013518;28;20212;-88
2021/08/09 08:02:02;;;;;;;3.83;2.75;;;19.30;74.10;;;;;;5013451;28;20193;-89
2021/08/09 08:04:31;;;;;;;4.50;3.00;;;19.40;72.30;;;;;;5013745;28;20255;-88
2021/08/09 08:06:58;;;;;;;4.88;3.35;;;19.40;72.50;;;;;;5017424;28;20194;-89
2021/08/09 08:09:24;;;;;;;4.10;2.97;;;19.60;71.80;;;;;;5008319;28;20201;-88
2021/08/09 08:11:50;;;;;;;3.17;2.67;;;19.40;73.20;;;;;;5009894;28;20228;-87
2021/08/09 08:14:15;;;;;;;4.75;2.63;;;19.40;70.60;;;;;;5017595;28;20213;-86
2021/08/09 08:16:42;;;;;;;6.05;2.88;;;19.60;71.40;;;;;;5010139;28;20281;-89
2021/08/09 08:19:08;;;;;;;5.05;2.90;;;19.70;70.60;;;;;;5034180;28;20420;-89
2021/08/09 08:21:34;;;;;;;3.70;2.75;;;19.80;71.50;;;;;;5010724;28;20214;-89
2021/08/09 08:24:00;;;;;;;2.83;2.50;;;19.90;67.90;;;;;;5014156;28;20289;-89
2021/08/09 08:26:26;;;;;;;4.43;2.80;;;20.30;66.30;;;;;;5017060;28;20659;-88
2021/08/09 08:28:52;;;;;;;4.47;2.63;;;20.40;67.70;;;;;;5009585;28;20195;-89
2021/08/09 08:31:17;;;;;;;2.75;2.55;;;20.30;66.60;;;;;;5030838;28;20229;-89
2021/08/09 08:33:43;;;;;;;3.70;2.88;;;20.40;66.50;;;;;;5016629;28;20204;-89
2021/08/09 08:36:09;;;;;;;3.25;2.47;;;20.30;66.00;;;;;;5014737;28;20189;-89
2021/08/09 08:38:35;;;;;;;3.28;2.67;;;20.40;66.60;;;;;;5013601;28;20217;-89
2021/08/09 08:41:04;;;;;;;4.28;2.45;;;20.60;67.30;;;;;;5019101;28;20202;-87
2021/08/09 08:43:31;;;;;;;3.30;2.50;;;20.60;63.90;;;;;;5017351;28;20198;-89
2021/08/09 08:45:58;;;;;;;3.08;2.45;;;20.70;65.00;;;;;;5014510;28;20190;-89
2021/08/09 08:48:25;;;;;;;3.35;2.90;;;20.80;65.40;;;;;;5017270;28;20671;-88
2021/08/09 08:50:51;;;;;;;4.20;2.50;;;20.80;65.20;;;;;;5012415;28;20576;-89
2021/08/09 08:53:19;;;;;;;2.95;2.65;;;20.90;64.70;;;;;;5017341;28;20193;-88
2021/08/09 08:55:45;;;;;;;4.93;2.53;;;21.10;63.20;;;;;;5014161;28;20284;-88
2021/08/09 08:58:11;;;;;;;4.20;2.67;;;21.10;65.60;;;;;;5011232;28;20241;-87
2021/08/09 09:00:37;;;;;;;2.53;2.25;;;21.20;63.70;;;;;;5017257;28;20207;-88
2021/08/09 09:03:18;;;;;;;3.60;2.50;;;21.30;62.10;;;;;;5012319;28;20285;-87
2021/08/09 09:06:05;;;;;;;5.00;2.53;;;21.50;63.00;;;;;;5015209;28;20281;-88
2021/08/09 09:08:45;;;;;;;2.70;2.50;;;21.50;61.70;;;;;;5016059;28;20255;-88
2021/08/09 09:11:13;;;;;;;3.55;2.70;;;21.50;60.70;;;;;;5017455;28;20214;-87
2021/08/09 09:14:24;;;;;;;4.05;2.30;;;21.50;61.30;;;;;;5013530;28;20201;-88
2021/08/09 09:16:50;;;;;;;3.58;2.60;;;21.60;61.50;;;;;;4940014;29;20555;-89
2021/08/09 09:19:39;;;;;;;3.28;2.40;;;21.80;59.90;;;;;;4954862;29;20227;-88
2021/08/09 09:22:18;;;;;;;2.60;2.40;;;22.00;57.80;;;;;;4990358;28;20201;-88
2021/08/09 09:24:52;;;;;;;4.65;2.63;;;22.20;60.10;;;;;;5013782;28;20271;-89
2021/08/09 09:27:32;;;;;;;3.92;2.35;;;22.40;58.20;;;;;;5017329;28;20191;-88
2021/08/09 09:29:58;;;;;;;2.92;2.63;;;22.40;56.90;;;;;;5016916;28;20220;-89
2021/08/09 09:32:25;;;;;;;2.47;2.28;;;22.40;57.30;;;;;;5010930;28;20193;-89
2021/08/09 09:34:57;;;;;;;4.10;2.60;;;22.70;57.10;;;;;;5018406;28;20365;-89
2021/08/09 09:37:30;;;;;;;4.15;2.40;;;22.40;57.10;;;;;;5021079;28;20285;-89
2021/08/09 09:40:19;;;;;;;3.03;2.72;;;22.30;57.20;;;;;;5019383;28;20215;-88
2021/08/09 09:42:46;;;;;;;3.15;2.30;;;22.70;56.00;;;;;;5006322;28;20864;-89
2021/08/09 09:45:26;;;;;;;6.20;2.63;;;22.80;54.40;;;;;;5020263;28;20212;-89
2021/08/09 09:48:07;;;;;;;4.68;2.63;;;22.80;55.40;;;;;;5018815;28;20189;-89
2021/08/09 09:50:34;;;;;;;2.70;2.50;;;22.70;55.10;;;;;;5021488;28;20229;-89
2021/08/09 09:53:18;;;;;;;3.40;2.22;;;22.90;55.10;;;;;;5021907;28;20317;-89
2021/08/09 09:55:50;;;;;;;2.30;2.20;;;23.00;55.20;;;;;;5020372;28;20591;-89
2021/08/09 09:58:19;;;;;;;4.30;2.25;;;22.90;52.60;;;;;;5020779;28;20247;-88
2021/08/09 10:00:46;;;;;;;3.85;2.50;;;22.90;53.20;;;;;;5018082;28;20224;-89
2021/08/09 10:03:14;;;;;;;2.28;2.08;;;22.90;54.60;;;;;;5004399;28;20228;-89
2021/08/09 10:05:42;;;;;;;2.40;2.20;;;22.90;53.50;;;;;;5017218;28;20276;-89
2021/08/09 10:08:14;;;;;;;4.32;2.40;;;22.80;54.40;;;;;;5020479;28;20667;-89
2021/08/09 10:11:00;;;;;;;3.35;2.30;;;22.60;55.20;;;;;;5013860;28;20237;-89
2021/08/09 10:13:27;;;;;;;3.13;2.70;;;22.80;54.00;;;;;;5018358;28;20189;-89
2021/08/09 10:15:55;;;;;;;2.63;2.42;;;22.70;56.50;;;;;;5019413;28;20253;-89
2021/08/09 10:18:25;;;;;;;2.90;2.70;;;22.60;54.90;;;;;;5021725;28;20276;-88
2021/08/09 10:20:57;;;;;;;3.15;2.30;;;22.50;54.30;;;;;;5019252;28;20348;-89
2021/08/09 10:23:44;;;;;;;3.58;2.60;;;22.70;54.50;;;;;;5016157;28;20189;-89
2021/08/09 10:26:21;;;;;;;3.03;2.67;;;22.80;55.10;;;;;;5010563;28;20186;-89
2021/08/09 10:28:55;;;;;;;3.10;2.80;;;23.00;55.50;;;;;;5019214;28;20177;-90
2021/08/09 10:31:25;;;;;;;4.13;3.03;;;23.10;55.50;;;;;;5021726;28;20211;-88
2021/08/09 10:33:52;;;;;;;2.90;2.53;;;23.20;55.00;;;;;;5009596;28;20185;-88
2021/08/09 10:36:21;;;;;;;2.75;2.33;;;23.40;54.00;;;;;;5016677;28;20198;-87
2021/08/09 10:38:52;;;;;;;4.25;2.60;;;23.40;53.20;;;;;;5017602;28;20214;-87
2021/08/09 10:41:24;;;;;;;3.10;2.42;;;23.40;54.80;;;;;;5022008;28;20212;-87
2021/08/09 10:44:05;;;;;;;6.68;2.95;;;23.60;54.30;;;;;;5019093;28;20185;-88
2021/08/09 10:46:35;;;;;;;9.60;4.20;;;23.40;54.50;;;;;;5014155;28;20197;-87
2021/08/09 10:49:00;;;;;;;4.78;2.80;;;23.30;53.90;;;;;;5019106;28;20200;-87
2021/08/09 10:51:51;;;;;;;3.53;2.60;;;23.50;54.30;;;;;;5021645;28;20209;-89
2021/08/09 10:54:34;;;;;;;2.97;2.40;;;23.80;53.30;;;;;;5009271;28;20201;-89
2021/08/09 10:57:07;;;;;;;3.10;2.50;;;24.10;54.90;;;;;;5075110;28;20589;-87
2021/08/09 10:59:43;;;;;;;6.70;2.63;;;24.20;53.00;;;;;;5075404;28;20662;-87
2021/08/09 11:02:21;;;;;;;3.00;2.70;;;23.80;52.70;;;;;;5059099;28;20654;-87
2021/08/09 11:05:14;;;;;;;3.25;2.90;;;23.70;53.90;;;;;;5055391;28;20202;-86
2021/08/09 11:07:44;;;;;;;3.35;2.60;;;23.90;56.30;;;;;;5058277;28;20184;-86
2021/08/09 11:10:11;;;;;;;5.60;3.05;;;24.20;53.80;;;;;;5054566;28;20219;-86
2021/08/09 11:12:59;;;;;;;5.35;2.95;;;24.70;53.00;;;;;;5048509;28;20199;-88
2021/08/09 11:15:25;;;;;;;2.85;2.10;;;24.40;50.80;;;;;;5053222;28;20672;-88
2021/08/09 11:17:54;;;;;;;3.00;2.70;;;24.70;50.20;;;;;;5052461;28;20177;-88
2021/08/09 11:20:25;;;;;;;3.33;2.33;;;25.10;51.60;;;;;;5052996;28;20220;-88
2021/08/09 11:23:02;;;;;;;3.85;2.60;;;25.60;47.90;;;;;;5051288;28;20195;-88
2021/08/09 11:25:32;;;;;;;3.03;2.58;;;25.60;47.40;;;;;;5048319;28;20221;-88
2021/08/09 11:28:01;;;;;;;3.75;2.70;;;24.90;50.90;;;;;;5053447;28;20254;-88
2021/08/09 11:30:35;;;;;;;3.08;2.78;;;24.40;48.90;;;;;;5047636;28;20219;-88
2021/08/09 11:33:01;;;;;;;2.30;2.10;;;24.10;50.00;;;;;;5053206;28;20352;-88
2021/08/09 11:35:27;;;;;;;4.65;2.30;;;24.00;51.70;;;;;;5055820;28;20216;-88
2021/08/09 11:37:53;;;;;;;3.90;2.85;;;24.20;50.90;;;;;;5054457;28;20223;-88
2021/08/09 11:40:39;;;;;;;4.10;2.75;;;24.30;51.40;;;;;;5056934;28;20204;-87
2021/08/09 11:43:09;;;;;;;4.97;2.58;;;24.40;49.50;;;;;;5055886;28;20184;-88
2021/08/09 11:45:35;;;;;;;4.95;2.60;;;24.40;51.20;;;;;;5054168;28;20196;-88
2021/08/09 11:48:01;;;;;;;3.13;2.60;;;24.30;51.30;;;;;;5055497;28;20229;-87
2021/08/09 11:50:34;;;;;;;3.08;2.78;;;24.20;50.80;;;;;;5052998;28;20204;-87
2021/08/09 11:53:00;;;;;;;2.50;2.30;;;24.40;50.00;;;;;;5054285;28;20655;-88
2021/08/09 11:55:26;;;;;;;15.85;2.90;;;24.40;50.70;;;;;;5057312;28;20235;-87
2021/08/09 11:57:52;;;;;;;2.85;2.53;;;24.40;51.20;;;;;;5051860;28;20672;-88
2021/08/09 12:00:18;;;;;;;2.53;2.33;;;24.40;52.60;;;;;;5053569;28;20215;-88
2021/08/09 12:03:13;;;;;;;4.72;2.53;;;24.40;52.70;;;;;;5053029;28;20192;-88
2021/08/09 12:05:39;;;;;;;5.18;2.63;;;24.40;53.70;;;;;;5046694;28;20199;-88
2021/08/09 12:08:06;;;;;;;2.55;2.35;;;24.60;52.40;;;;;;5043618;28;20298;-89
2021/08/09 12:10:36;;;;;;;3.10;2.75;;;24.60;52.90;;;;;;5036795;28;20223;-88
2021/08/09 12:13:03;;;;;;;3.33;2.63;;;24.40;53.40;;;;;;5039783;28;20189;-87
2021/08/09 12:15:29;;;;;;;4.20;2.47;;;24.40;53.10;;;;;;5055683;28;20219;-88
2021/08/09 12:18:13;;;;;;;2.90;2.60;;;24.50;52.60;;;;;;5031959;28;20200;-88
2021/08/09 12:20:39;;;;;;;4.95;3.20;;;24.50;53.10;;;;;;5036589;28;20224;-88
2021/08/09 12:23:23;;;;;;;5.35;4.20;;;24.40;53.10;;;;;;5034357;28;20630;-88
2021/08/09 12:25:49;;;;;;;5.95;5.35;;;24.30;52.50;;;;;;5030236;28;20723;-87
2021/08/09 12:28:14;;;;;;;5.75;3.00;;;24.90;52.00;;;;;;5039107;28;20208;-88
2021/08/09 12:30:53;;;;;;;3.65;3.10;;;25.90;48.30;;;;;;5034316;28;20217;-87
2021/08/09 12:33:20;;;;;;;3.05;2.40;;;26.40;45.90;;;;;;5036083;28;20584;-88
2021/08/09 12:35:47;;;;;;;4.38;2.70;;;26.70;45.80;;;;;;5036584;28;20622;-88
2021/08/09 12:38:14;;;;;;;3.28;2.90;;;26.70;45.50;;;;;;5037242;28;20208;-88
2021/08/09 12:40:45;;;;;;;4.63;4.13;;;26.90;46.00;;;;;;5035242;28;20212;-88
2021/08/09 12:43:14;;;;;;;4.03;3.20;;;27.10;46.90;;;;;;5032250;28;20190;-89
2021/08/09 12:45:41;;;;;;;4.35;3.50;;;27.50;43.10;;;;;;5036601;28;20180;-88
2021/08/09 12:48:09;;;;;;;3.47;3.17;;;27.60;40.50;;;;;;5035489;28;20205;-88
2021/08/09 12:50:36;;;;;;;4.40;2.80;;;27.70;41.20;;;;;;5036266;28;20217;-88
2021/08/09 12:53:02;;;;;;;2.85;2.65;;;28.10;40.70;;;;;;5037150;28;20192;-88
2021/08/09 12:55:29;;;;;;;3.03;2.72;;;28.20;41.40;;;;;;5033832;28;20213;-88